sensor_id;sensor_type;location;lat;lon;timestamp;temperature;humidity
24560;DHT22;12727;49.934;8.656;2022-07-23T00:02:01;21.20;90.40
24560;DHT22;12727;49.934;8.656;2022-07-23T00:04:26;21.20;90.50
24560;DHT22;12727;49.934;8.656;2022-07-23T00:06:52;21.20;90.50
24560;DHT22;12727;49.934;8.656;2022-07-23T00:09:18;21.20;90.70
24560;DHT22;12727;49.934;8.656;2022-07-23T00:11:43;21.10;90.70
24560;DHT22;12727;49.934;8.656;2022-07-23T00:14:09;21.10;90.90
24560;DHT22;12727;49.934;8.656;2022-07-23T00:16:34;21.10;91.10
24560;DHT22;12727;49.934;8.656;2022-07-23T00:19:00;21.00;91.40
24560;DHT22;12727;49.934;8.656;2022-07-23T00:21:27;21.00;91.30
24560;DHT22;12727;49.934;8.656;2022-07-23T00:23:53;21.00;91.50
24560;DHT22;12727;49.934;8.656;2022-07-23T00:26:19;21.00;91.60
24560;DHT22;12727;49.934;8.656;2022-07-23T00:28:44;20.90;91.70
24560;DHT22;12727;49.934;8.656;2022-07-23T00:31:10;21.10;91.60
24560;DHT22;12727;49.934;8.656;2022-07-23T00:33:36;21.00;91.60
24560;DHT22;12727;49.934;8.656;2022-07-23T00:36:01;21.10;91.60
24560;DHT22;12727;49.934;8.656;2022-07-23T00:38:27;21.00;91.70
24560;DHT22;12727;49.934;8.656;2022-07-23T00:40:52;21.00;92.00
24560;DHT22;12727;49.934;8.656;2022-07-23T00:43:20;20.90;92.20
24560;DHT22;12727;49.934;8.656;2022-07-23T00:45:47;20.80;92.60
24560;DHT22;12727;49.934;8.656;2022-07-23T00:48:12;20.70;92.90
24560;DHT22;12727;49.934;8.656;2022-07-23T00:50:38;20.70;93.10
24560;DHT22;12727;49.934;8.656;2022-07-23T00:53:04;20.70;93.30
24560;DHT22;12727;49.934;8.656;2022-07-23T00:55:30;20.60;93.50
24560;DHT22;12727;49.934;8.656;2022-07-23T00:57:57;20.70;93.60
24560;DHT22;12727;49.934;8.656;2022-07-23T01:00:22;20.70;93.70
24560;DHT22;12727;49.934;8.656;2022-07-23T01:02:48;20.60;93.90
24560;DHT22;12727;49.934;8.656;2022-07-23T01:05:14;20.60;94.10
24560;DHT22;12727;49.934;8.656;2022-07-23T01:07:40;20.60;94.30
24560;DHT22;12727;49.934;8.656;2022-07-23T01:10:06;20.50;94.70
24560;DHT22;12727;49.934;8.656;2022-07-23T01:12:52;20.50;95.30
24560;DHT22;12727;49.934;8.656;2022-07-23T01:15:18;20.50;95.40
24560;DHT22;12727;49.934;8.656;2022-07-23T01:17:43;20.50;95.50
24560;DHT22;12727;49.934;8.656;2022-07-23T01:20:09;20.50;96.00
24560;DHT22;12727;49.934;8.656;2022-07-23T01:22:35;20.50;96.00
24560;DHT22;12727;49.934;8.656;2022-07-23T01:25:01;20.40;96.00
24560;DHT22;12727;49.934;8.656;2022-07-23T01:27:26;20.40;96.70
24560;DHT22;12727;49.934;8.656;2022-07-23T01:29:54;20.40;97.20
24560;DHT22;12727;49.934;8.656;2022-07-23T01:32:19;20.40;97.70
24560;DHT22;12727;49.934;8.656;2022-07-23T01:34:45;20.40;97.90
24560;DHT22;12727;49.934;8.656;2022-07-23T01:37:10;20.40;98.10
24560;DHT22;12727;49.934;8.656;2022-07-23T01:39:36;20.20;98.30
24560;DHT22;12727;49.934;8.656;2022-07-23T01:42:01;20.10;98.80
24560;DHT22;12727;49.934;8.656;2022-07-23T01:44:27;20.00;99.10
24560;DHT22;12727;49.934;8.656;2022-07-23T01:46:52;19.90;99.80
24560;DHT22;12727;49.934;8.656;2022-07-23T01:49:18;19.90;99.90
24560;DHT22;12727;49.934;8.656;2022-07-23T01:51:44;20.00;99.90
24560;DHT22;12727;49.934;8.656;2022-07-23T01:54:26;20.00;99.90
24560;DHT22;12727;49.934;8.656;2022-07-23T01:56:51;20.00;99.90
24560;DHT22;12727;49.934;8.656;2022-07-23T01:59:17;20.10;99.90
24560;DHT22;12727;49.934;8.656;2022-07-23T02:01:43;20.00;99.90
24560;DHT22;12727;49.934;8.656;2022-07-23T02:04:08;20.00;99.90
24560;DHT22;12727;49.934;8.656;2022-07-23T02:06:34;20.00;99.90
24560;DHT22;12727;49.934;8.656;2022-07-23T02:08:59;19.90;99.90
24560;DHT22;12727;49.934;8.656;2022-07-23T02:11:25;19.80;99.90
24560;DHT22;12727;49.934;8.656;2022-07-23T02:13:50;19.80;99.90
24560;DHT22;12727;49.934;8.656;2022-07-23T02:16:16;19.80;99.90
24560;DHT22;12727;49.934;8.656;2022-07-23T02:18:41;19.80;99.90
24560;DHT22;12727;49.934;8.656;2022-07-23T02:21:07;19.90;99.90
24560;DHT22;12727;49.934;8.656;2022-07-23T02:23:32;19.90;99.90
24560;DHT22;12727;49.934;8.656;2022-07-23T02:25:58;19.80;99.90
24560;DHT22;12727;49.934;8.656;2022-07-23T02:28:23;19.80;99.90
24560;DHT22;12727;49.934;8.656;2022-07-23T02:30:49;19.70;99.90
24560;DHT22;12727;49.934;8.656;2022-07-23T02:33:14;19.60;99.90
24560;DHT22;12727;49.934;8.656;2022-07-23T02:35:40;19.40;99.90
24560;DHT22;12727;49.934;8.656;2022-07-23T02:38:05;19.40;99.90
24560;DHT22;12727;49.934;8.656;2022-07-23T02:40:31;19.40;99.90
24560;DHT22;12727;49.934;8.656;2022-07-23T02:42:57;19.40;99.90
24560;DHT22;12727;49.934;8.656;2022-07-23T02:45:22;19.20;99.90
24560;DHT22;12727;49.934;8.656;2022-07-23T02:47:48;19.20;99.90
24560;DHT22;12727;49.934;8.656;2022-07-23T02:50:14;19.20;99.90
24560;DHT22;12727;49.934;8.656;2022-07-23T02:52:39;19.20;99.90
24560;DHT22;12727;49.934;8.656;2022-07-23T02:55:05;19.20;99.90
24560;DHT22;12727;49.934;8.656;2022-07-23T02:57:31;19.30;99.90
24560;DHT22;12727;49.934;8.656;2022-07-23T02:59:56;19.40;99.90
24560;DHT22;12727;49.934;8.656;2022-07-23T03:02:22;19.50;99.90
24560;DHT22;12727;49.934;8.656;2022-07-23T03:04:48;19.40;99.90
24560;DHT22;12727;49.934;8.656;2022-07-23T03:07:18;19.40;99.90
24560;DHT22;12727;49.934;8.656;2022-07-23T03:09:43;19.40;99.90
24560;DHT22;12727;49.934;8.656;2022-07-23T03:12:09;19.30;99.90
24560;DHT22;12727;49.934;8.656;2022-07-23T03:14:35;19.30;99.90
24560;DHT22;12727;49.934;8.656;2022-07-23T03:17:00;19.30;99.90
24560;DHT22;12727;49.934;8.656;2022-07-23T03:19:26;19.30;99.90
24560;DHT22;12727;49.934;8.656;2022-07-23T03:21:52;19.20;99.90
24560;DHT22;12727;49.934;8.656;2022-07-23T03:24:17;19.20;99.90
24560;DHT22;12727;49.934;8.656;2022-07-23T03:26:46;19.40;99.90
24560;DHT22;12727;49.934;8.656;2022-07-23T03:29:11;19.50;99.90
24560;DHT22;12727;49.934;8.656;2022-07-23T03:31:37;19.40;99.90
24560;DHT22;12727;49.934;8.656;2022-07-23T03:34:02;19.40;99.90
24560;DHT22;12727;49.934;8.656;2022-07-23T03:36:28;19.30;99.90
24560;DHT22;12727;49.934;8.656;2022-07-23T03:38:54;19.30;99.90
24560;DHT22;12727;49.934;8.656;2022-07-23T03:41:20;19.40;99.90
24560;DHT22;12727;49.934;8.656;2022-07-23T03:43:46;19.40;99.90
24560;DHT22;12727;49.934;8.656;2022-07-23T03:46:12;19.40;99.90
24560;DHT22;12727;49.934;8.656;2022-07-23T03:48:38;19.30;99.90
24560;DHT22;12727;49.934;8.656;2022-07-23T03:51:03;19.20;99.90
24560;DHT22;12727;49.934;8.656;2022-07-23T03:53:29;19.30;99.90
24560;DHT22;12727;49.934;8.656;2022-07-23T03:55:55;19.30;99.90
24560;DHT22;12727;49.934;8.656;2022-07-23T03:58:20;19.20;99.90
24560;DHT22;12727;49.934;8.656;2022-07-23T04:00:46;19.30;99.90
24560;DHT22;12727;49.934;8.656;2022-07-23T04:03:12;19.30;99.90
24560;DHT22;12727;49.934;8.656;2022-07-23T04:05:37;19.20;99.90
24560;DHT22;12727;49.934;8.656;2022-07-23T04:08:03;19.20;99.90
24560;DHT22;12727;49.934;8.656;2022-07-23T04:10:29;19.10;99.90
24560;DHT22;12727;49.934;8.656;2022-07-23T04:12:54;19.00;99.90
24560;DHT22;12727;49.934;8.656;2022-07-23T04:15:20;19.00;99.90
24560;DHT22;12727;49.934;8.656;2022-07-23T04:17:45;19.00;99.90
24560;DHT22;12727;49.934;8.656;2022-07-23T04:20:12;18.90;99.90
24560;DHT22;12727;49.934;8.656;2022-07-23T04:22:38;18.90;99.90
24560;DHT22;12727;49.934;8.656;2022-07-23T04:25:04;19.00;99.90
24560;DHT22;12727;49.934;8.656;2022-07-23T04:27:29;19.00;99.90
24560;DHT22;12727;49.934;8.656;2022-07-23T04:29:55;19.10;99.90
24560;DHT22;12727;49.934;8.656;2022-07-23T04:32:21;19.10;99.90
24560;DHT22;12727;49.934;8.656;2022-07-23T04:34:46;19.10;99.90
24560;DHT22;12727;49.934;8.656;2022-07-23T04:37:12;19.20;99.90
24560;DHT22;12727;49.934;8.656;2022-07-23T04:39:37;19.30;99.90
24560;DHT22;12727;49.934;8.656;2022-07-23T04:42:03;19.50;99.90
24560;DHT22;12727;49.934;8.656;2022-07-23T04:44:29;19.70;99.90
24560;DHT22;12727;49.934;8.656;2022-07-23T04:46:54;19.80;99.90
24560;DHT22;12727;49.934;8.656;2022-07-23T04:49:20;19.80;99.90
24560;DHT22;12727;49.934;8.656;2022-07-23T04:51:45;19.80;99.90
24560;DHT22;12727;49.934;8.656;2022-07-23T04:54:11;19.70;99.90
24560;DHT22;12727;49.934;8.656;2022-07-23T04:56:36;19.70;99.90
24560;DHT22;12727;49.934;8.656;2022-07-23T04:59:02;19.70;99.90
24560;DHT22;12727;49.934;8.656;2022-07-23T05:01:28;19.80;99.90
24560;DHT22;12727;49.934;8.656;2022-07-23T05:03:53;19.70;99.90
24560;DHT22;12727;49.934;8.656;2022-07-23T05:06:19;19.70;99.90
24560;DHT22;12727;49.934;8.656;2022-07-23T05:08:44;19.70;99.90
24560;DHT22;12727;49.934;8.656;2022-07-23T05:11:10;19.80;99.90
24560;DHT22;12727;49.934;8.656;2022-07-23T05:13:35;19.90;99.90
24560;DHT22;12727;49.934;8.656;2022-07-23T05:16:01;19.80;99.90
24560;DHT22;12727;49.934;8.656;2022-07-23T05:18:26;19.60;99.90
24560;DHT22;12727;49.934;8.656;2022-07-23T05:20:52;19.50;99.90
24560;DHT22;12727;49.934;8.656;2022-07-23T05:23:17;19.60;99.90
24560;DHT22;12727;49.934;8.656;2022-07-23T05:25:43;19.50;99.90
24560;DHT22;12727;49.934;8.656;2022-07-23T05:28:09;19.40;99.90
24560;DHT22;12727;49.934;8.656;2022-07-23T05:30:34;19.50;99.90
24560;DHT22;12727;49.934;8.656;2022-07-23T05:33:00;19.50;99.90
24560;DHT22;12727;49.934;8.656;2022-07-23T05:35:25;19.50;99.90
24560;DHT22;12727;49.934;8.656;2022-07-23T05:37:51;19.50;99.90
24560;DHT22;12727;49.934;8.656;2022-07-23T05:40:18;19.50;99.90
24560;DHT22;12727;49.934;8.656;2022-07-23T05:42:43;19.70;99.90
24560;DHT22;12727;49.934;8.656;2022-07-23T05:45:10;19.70;99.90
24560;DHT22;12727;49.934;8.656;2022-07-23T05:47:46;19.80;99.90
24560;DHT22;12727;49.934;8.656;2022-07-23T05:50:13;19.80;99.90
24560;DHT22;12727;49.934;8.656;2022-07-23T05:52:39;19.90;99.90
24560;DHT22;12727;49.934;8.656;2022-07-23T05:55:06;19.90;99.90
24560;DHT22;12727;49.934;8.656;2022-07-23T05:57:32;20.00;99.90
24560;DHT22;12727;49.934;8.656;2022-07-23T05:59:57;20.00;99.90
24560;DHT22;12727;49.934;8.656;2022-07-23T06:02:23;20.00;99.90
24560;DHT22;12727;49.934;8.656;2022-07-23T06:04:48;20.10;99.90
24560;DHT22;12727;49.934;8.656;2022-07-23T06:07:14;20.10;99.90
24560;DHT22;12727;49.934;8.656;2022-07-23T06:09:39;20.30;99.90
24560;DHT22;12727;49.934;8.656;2022-07-23T06:12:05;20.70;99.90
24560;DHT22;12727;49.934;8.656;2022-07-23T06:14:31;21.00;99.90
24560;DHT22;12727;49.934;8.656;2022-07-23T06:16:57;21.00;99.90
24560;DHT22;12727;49.934;8.656;2022-07-23T06:19:22;20.90;99.90
24560;DHT22;12727;49.934;8.656;2022-07-23T06:21:48;20.60;99.90
24560;DHT22;12727;49.934;8.656;2022-07-23T06:24:13;20.50;99.90
24560;DHT22;12727;49.934;8.656;2022-07-23T06:26:39;20.60;99.90
24560;DHT22;12727;49.934;8.656;2022-07-23T06:29:05;20.50;99.90
24560;DHT22;12727;49.934;8.656;2022-07-23T06:31:30;20.50;99.90
24560;DHT22;12727;49.934;8.656;2022-07-23T06:33:56;20.40;99.90
24560;DHT22;12727;49.934;8.656;2022-07-23T06:36:21;20.50;99.90
24560;DHT22;12727;49.934;8.656;2022-07-23T06:38:47;20.50;99.90
24560;DHT22;12727;49.934;8.656;2022-07-23T06:41:12;20.40;99.90
24560;DHT22;12727;49.934;8.656;2022-07-23T06:43:38;20.50;99.90
24560;DHT22;12727;49.934;8.656;2022-07-23T06:46:04;20.80;99.90
24560;DHT22;12727;49.934;8.656;2022-07-23T06:48:30;21.20;99.90
24560;DHT22;12727;49.934;8.656;2022-07-23T06:50:55;21.60;99.80
24560;DHT22;12727;49.934;8.656;2022-07-23T06:53:21;21.90;98.90
24560;DHT22;12727;49.934;8.656;2022-07-23T06:55:47;22.20;98.00
24560;DHT22;12727;49.934;8.656;2022-07-23T06:58:13;22.60;97.30
24560;DHT22;12727;49.934;8.656;2022-07-23T07:00:40;22.90;96.20
24560;DHT22;12727;49.934;8.656;2022-07-23T07:03:05;23.00;95.30
24560;DHT22;12727;49.934;8.656;2022-07-23T07:05:31;23.20;94.80
24560;DHT22;12727;49.934;8.656;2022-07-23T07:07:56;23.30;93.70
24560;DHT22;12727;49.934;8.656;2022-07-23T07:10:22;23.20;93.30
24560;DHT22;12727;49.934;8.656;2022-07-23T07:12:48;23.00;93.40
24560;DHT22;12727;49.934;8.656;2022-07-23T07:15:14;23.20;93.00
24560;DHT22;12727;49.934;8.656;2022-07-23T07:17:39;23.60;92.20
24560;DHT22;12727;49.934;8.656;2022-07-23T07:20:06;23.90;91.40
24560;DHT22;12727;49.934;8.656;2022-07-23T07:22:31;24.10;90.80
24560;DHT22;12727;49.934;8.656;2022-07-23T07:24:57;23.80;90.50
24560;DHT22;12727;49.934;8.656;2022-07-23T07:27:23;24.10;90.10
24560;DHT22;12727;49.934;8.656;2022-07-23T07:29:48;24.50;87.80
24560;DHT22;12727;49.934;8.656;2022-07-23T07:32:14;24.80;86.00
24560;DHT22;12727;49.934;8.656;2022-07-23T07:34:39;24.70;84.90
24560;DHT22;12727;49.934;8.656;2022-07-23T07:37:05;25.00;84.90
24560;DHT22;12727;49.934;8.656;2022-07-23T07:39:31;25.10;82.90
24560;DHT22;12727;49.934;8.656;2022-07-23T07:41:56;25.20;82.20
24560;DHT22;12727;49.934;8.656;2022-07-23T07:44:22;25.30;81.10
24560;DHT22;12727;49.934;8.656;2022-07-23T07:46:47;25.20;80.50
24560;DHT22;12727;49.934;8.656;2022-07-23T07:49:13;25.60;79.10
24560;DHT22;12727;49.934;8.656;2022-07-23T07:51:38;25.80;77.70
24560;DHT22;12727;49.934;8.656;2022-07-23T07:54:04;25.90;76.80
24560;DHT22;12727;49.934;8.656;2022-07-23T07:56:29;25.80;76.20
24560;DHT22;12727;49.934;8.656;2022-07-23T07:58:55;25.90;75.10
24560;DHT22;12727;49.934;8.656;2022-07-23T08:01:21;26.00;74.50
24560;DHT22;12727;49.934;8.656;2022-07-23T08:03:46;25.60;75.00
24560;DHT22;12727;49.934;8.656;2022-07-23T08:06:12;25.40;76.30
24560;DHT22;12727;49.934;8.656;2022-07-23T08:08:37;25.60;75.90
24560;DHT22;12727;49.934;8.656;2022-07-23T08:11:03;25.50;77.30
24560;DHT22;12727;49.934;8.656;2022-07-23T08:13:29;25.20;76.30
24560;DHT22;12727;49.934;8.656;2022-07-23T08:15:54;24.80;77.20
24560;DHT22;12727;49.934;8.656;2022-07-23T08:18:20;24.60;77.90
24560;DHT22;12727;49.934;8.656;2022-07-23T08:20:45;24.30;78.10
24560;DHT22;12727;49.934;8.656;2022-07-23T08:23:11;24.10;79.20
24560;DHT22;12727;49.934;8.656;2022-07-23T08:25:46;24.10;79.60
24560;DHT22;12727;49.934;8.656;2022-07-23T08:28:14;24.30;79.10
24560;DHT22;12727;49.934;8.656;2022-07-23T08:30:42;24.60;78.10
24560;DHT22;12727;49.934;8.656;2022-07-23T08:33:10;25.40;76.70
24560;DHT22;12727;49.934;8.656;2022-07-23T08:35:41;26.30;73.50
24560;DHT22;12727;49.934;8.656;2022-07-23T08:38:09;26.60;72.70
24560;DHT22;12727;49.934;8.656;2022-07-23T08:40:37;26.70;70.60
24560;DHT22;12727;49.934;8.656;2022-07-23T08:43:08;26.50;71.60
24560;DHT22;12727;49.934;8.656;2022-07-23T08:45:37;27.10;70.30
24560;DHT22;12727;49.934;8.656;2022-07-23T08:48:06;27.50;70.00
24560;DHT22;12727;49.934;8.656;2022-07-23T08:50:32;27.80;67.80
24560;DHT22;12727;49.934;8.656;2022-07-23T08:53:02;27.30;67.60
24560;DHT22;12727;49.934;8.656;2022-07-23T08:55:28;26.80;68.00
24560;DHT22;12727;49.934;8.656;2022-07-23T08:57:53;27.40;67.60
24560;DHT22;12727;49.934;8.656;2022-07-23T09:00:21;28.10;65.10
24560;DHT22;12727;49.934;8.656;2022-07-23T09:02:47;28.70;62.80
24560;DHT22;12727;49.934;8.656;2022-07-23T09:05:14;28.80;62.60
24560;DHT22;12727;49.934;8.656;2022-07-23T09:08:10;29.60;60.20
24560;DHT22;12727;49.934;8.656;2022-07-23T09:10:50;29.80;58.00
24560;DHT22;12727;49.934;8.656;2022-07-23T09:13:30;29.60;58.40
24560;DHT22;12727;49.934;8.656;2022-07-23T09:16:08;29.70;56.80
24560;DHT22;12727;49.934;8.656;2022-07-23T09:18:44;29.30;59.00
24560;DHT22;12727;49.934;8.656;2022-07-23T09:26:35;29.30;58.30
24560;DHT22;12727;49.934;8.656;2022-07-23T09:31:44;29.60;56.80
24560;DHT22;12727;49.934;8.656;2022-07-23T09:34:22;29.80;56.40
24560;DHT22;12727;49.934;8.656;2022-07-23T09:36:49;29.90;55.60
24560;DHT22;12727;49.934;8.656;2022-07-23T09:39:16;29.80;55.60
24560;DHT22;12727;49.934;8.656;2022-07-23T09:41:47;29.60;55.90
24560;DHT22;12727;49.934;8.656;2022-07-23T09:44:15;29.60;55.70
24560;DHT22;12727;49.934;8.656;2022-07-23T09:46:42;30.10;54.90
24560;DHT22;12727;49.934;8.656;2022-07-23T09:49:18;30.40;54.60
24560;DHT22;12727;49.934;8.656;2022-07-23T09:51:53;30.90;53.40
24560;DHT22;12727;49.934;8.656;2022-07-23T09:54:28;30.50;53.80
24560;DHT22;12727;49.934;8.656;2022-07-23T09:56:57;30.50;53.80
24560;DHT22;12727;49.934;8.656;2022-07-23T09:59:31;30.60;53.90
24560;DHT22;12727;49.934;8.656;2022-07-23T10:01:58;31.10;53.10
24560;DHT22;12727;49.934;8.656;2022-07-23T10:04:26;31.30;52.70
24560;DHT22;12727;49.934;8.656;2022-07-23T10:06:54;31.20;52.10
24560;DHT22;12727;49.934;8.656;2022-07-23T10:09:32;30.90;52.30
24560;DHT22;12727;49.934;8.656;2022-07-23T10:12:00;30.50;52.20
24560;DHT22;12727;49.934;8.656;2022-07-23T10:14:39;30.80;52.60
24560;DHT22;12727;49.934;8.656;2022-07-23T10:17:05;30.50;52.70
24560;DHT22;12727;49.934;8.656;2022-07-23T10:19:32;30.70;52.50
24560;DHT22;12727;49.934;8.656;2022-07-23T10:22:01;30.60;52.20
24560;DHT22;12727;49.934;8.656;2022-07-23T10:38:49;29.50;53.20
24560;DHT22;12727;49.934;8.656;2022-07-23T10:44:17;28.90;54.60
24560;DHT22;12727;49.934;8.656;2022-07-23T10:47:03;28.90;55.20
24560;DHT22;12727;49.934;8.656;2022-07-23T10:49:33;29.20;54.40
24560;DHT22;12727;49.934;8.656;2022-07-23T10:54:44;29.40;53.60
24560;DHT22;12727;49.934;8.656;2022-07-23T10:57:12;29.20;53.80
24560;DHT22;12727;49.934;8.656;2022-07-23T11:02:33;29.00;54.60
24560;DHT22;12727;49.934;8.656;2022-07-23T11:07:29;28.60;54.80
24560;DHT22;12727;49.934;8.656;2022-07-23T11:09:55;28.70;54.50
24560;DHT22;12727;49.934;8.656;2022-07-23T11:15:22;29.00;54.40
24560;DHT22;12727;49.934;8.656;2022-07-23T11:20:23;28.90;54.60
24560;DHT22;12727;49.934;8.656;2022-07-23T11:22:52;28.30;55.50
24560;DHT22;12727;49.934;8.656;2022-07-23T11:27:47;27.40;57.50
24560;DHT22;12727;49.934;8.656;2022-07-23T11:33:15;26.80;58.60
24560;DHT22;12727;49.934;8.656;2022-07-23T11:36:00;26.70;58.80
24560;DHT22;12727;49.934;8.656;2022-07-23T11:38:27;26.70;59.50
24560;DHT22;12727;49.934;8.656;2022-07-23T11:40:56;26.80;59.40
24560;DHT22;12727;49.934;8.656;2022-07-23T11:43:25;27.00;58.90
24560;DHT22;12727;49.934;8.656;2022-07-23T11:45:57;26.90;58.80
24560;DHT22;12727;49.934;8.656;2022-07-23T11:48:25;26.90;59.00
24560;DHT22;12727;49.934;8.656;2022-07-23T11:50:52;27.20;59.00
24560;DHT22;12727;49.934;8.656;2022-07-23T11:53:29;27.40;58.70
24560;DHT22;12727;49.934;8.656;2022-07-23T11:56:06;27.50;58.30
24560;DHT22;12727;49.934;8.656;2022-07-23T11:58:32;27.30;58.40
24560;DHT22;12727;49.934;8.656;2022-07-23T12:00:58;27.20;59.30
24560;DHT22;12727;49.934;8.656;2022-07-23T12:03:23;27.20;58.90
24560;DHT22;12727;49.934;8.656;2022-07-23T12:05:49;27.30;58.50
24560;DHT22;12727;49.934;8.656;2022-07-23T12:08:14;27.30;58.40
24560;DHT22;12727;49.934;8.656;2022-07-23T12:10:43;27.30;58.20
24560;DHT22;12727;49.934;8.656;2022-07-23T12:13:15;27.30;58.00
24560;DHT22;12727;49.934;8.656;2022-07-23T12:15:52;27.40;57.90
24560;DHT22;12727;49.934;8.656;2022-07-23T12:18:23;27.60;57.80
24560;DHT22;12727;49.934;8.656;2022-07-23T12:20:53;27.70;57.50
24560;DHT22;12727;49.934;8.656;2022-07-23T12:23:21;27.60;57.20
24560;DHT22;12727;49.934;8.656;2022-07-23T12:25:49;27.50;57.40
24560;DHT22;12727;49.934;8.656;2022-07-23T12:28:18;27.20;57.50
24560;DHT22;12727;49.934;8.656;2022-07-23T12:30:52;27.10;57.80
24560;DHT22;12727;49.934;8.656;2022-07-23T12:33:26;27.30;57.60
24560;DHT22;12727;49.934;8.656;2022-07-23T12:36:04;27.40;57.60
24560;DHT22;12727;49.934;8.656;2022-07-23T12:39:03;27.70;57.60
24560;DHT22;12727;49.934;8.656;2022-07-23T12:41:50;27.70;56.40
24560;DHT22;12727;49.934;8.656;2022-07-23T12:44:15;27.80;57.40
24560;DHT22;12727;49.934;8.656;2022-07-23T12:46:41;28.00;57.10
24560;DHT22;12727;49.934;8.656;2022-07-23T12:49:06;28.20;56.20
24560;DHT22;12727;49.934;8.656;2022-07-23T12:51:32;28.00;56.40
24560;DHT22;12727;49.934;8.656;2022-07-23T12:54:08;27.90;57.00
24560;DHT22;12727;49.934;8.656;2022-07-23T12:56:37;27.80;56.80
24560;DHT22;12727;49.934;8.656;2022-07-23T13:01:30;27.60;57.70
24560;DHT22;12727;49.934;8.656;2022-07-23T13:04:18;27.60;57.30
24560;DHT22;12727;49.934;8.656;2022-07-23T13:06:55;27.70;56.00
24560;DHT22;12727;49.934;8.656;2022-07-23T13:09:25;27.70;55.50
24560;DHT22;12727;49.934;8.656;2022-07-23T13:11:52;27.70;56.20
24560;DHT22;12727;49.934;8.656;2022-07-23T13:14:19;28.00;54.80
24560;DHT22;12727;49.934;8.656;2022-07-23T13:16:46;28.10;54.40
24560;DHT22;12727;49.934;8.656;2022-07-23T13:19:12;28.20;54.10
24560;DHT22;12727;49.934;8.656;2022-07-23T13:21:38;28.20;54.00
24560;DHT22;12727;49.934;8.656;2022-07-23T13:24:04;28.40;53.50
24560;DHT22;12727;49.934;8.656;2022-07-23T13:26:29;28.40;53.40
24560;DHT22;12727;49.934;8.656;2022-07-23T13:28:55;28.40;53.20
24560;DHT22;12727;49.934;8.656;2022-07-23T13:31:21;28.50;52.90
24560;DHT22;12727;49.934;8.656;2022-07-23T13:33:47;28.70;52.80
24560;DHT22;12727;49.934;8.656;2022-07-23T13:36:13;28.90;52.00
24560;DHT22;12727;49.934;8.656;2022-07-23T13:38:39;29.00;51.90
24560;DHT22;12727;49.934;8.656;2022-07-23T13:41:05;28.90;51.70
24560;DHT22;12727;49.934;8.656;2022-07-23T13:43:31;28.80;51.30
24560;DHT22;12727;49.934;8.656;2022-07-23T13:45:58;28.70;51.40
24560;DHT22;12727;49.934;8.656;2022-07-23T13:48:24;28.50;51.30
24560;DHT22;12727;49.934;8.656;2022-07-23T13:50:50;28.60;52.00
24560;DHT22;12727;49.934;8.656;2022-07-23T13:53:22;28.80;51.10
24560;DHT22;12727;49.934;8.656;2022-07-23T13:55:52;29.10;51.30
24560;DHT22;12727;49.934;8.656;2022-07-23T13:58:18;29.10;50.10
24560;DHT22;12727;49.934;8.656;2022-07-23T14:00:48;28.90;50.40
24560;DHT22;12727;49.934;8.656;2022-07-23T14:03:14;29.20;50.50
24560;DHT22;12727;49.934;8.656;2022-07-23T14:05:40;29.50;49.80
24560;DHT22;12727;49.934;8.656;2022-07-23T14:08:07;29.50;49.00
24560;DHT22;12727;49.934;8.656;2022-07-23T14:10:32;29.40;49.50
24560;DHT22;12727;49.934;8.656;2022-07-23T14:12:58;29.20;49.50
24560;DHT22;12727;49.934;8.656;2022-07-23T14:15:26;29.40;49.40
24560;DHT22;12727;49.934;8.656;2022-07-23T14:17:52;29.70;48.70
24560;DHT22;12727;49.934;8.656;2022-07-23T14:20:19;29.80;48.30
24560;DHT22;12727;49.934;8.656;2022-07-23T14:22:45;29.80;48.60
24560;DHT22;12727;49.934;8.656;2022-07-23T14:25:11;29.80;48.20
24560;DHT22;12727;49.934;8.656;2022-07-23T14:27:37;29.40;48.70
24560;DHT22;12727;49.934;8.656;2022-07-23T14:30:04;29.30;49.40
24560;DHT22;12727;49.934;8.656;2022-07-23T14:32:30;29.30;49.80
24560;DHT22;12727;49.934;8.656;2022-07-23T14:34:55;29.40;49.60
24560;DHT22;12727;49.934;8.656;2022-07-23T14:37:21;29.40;48.90
24560;DHT22;12727;49.934;8.656;2022-07-23T14:39:47;29.50;48.70
24560;DHT22;12727;49.934;8.656;2022-07-23T14:42:13;29.50;48.40
24560;DHT22;12727;49.934;8.656;2022-07-23T14:44:39;29.40;49.40
24560;DHT22;12727;49.934;8.656;2022-07-23T14:47:05;29.40;49.30
24560;DHT22;12727;49.934;8.656;2022-07-23T14:49:32;29.20;50.10
24560;DHT22;12727;49.934;8.656;2022-07-23T14:51:58;29.10;50.50
24560;DHT22;12727;49.934;8.656;2022-07-23T14:54:25;29.10;50.20
24560;DHT22;12727;49.934;8.656;2022-07-23T14:56:53;29.20;50.70
24560;DHT22;12727;49.934;8.656;2022-07-23T14:59:18;29.10;50.50
24560;DHT22;12727;49.934;8.656;2022-07-23T15:01:44;28.70;50.80
24560;DHT22;12727;49.934;8.656;2022-07-23T15:04:10;28.50;51.40
24560;DHT22;12727;49.934;8.656;2022-07-23T15:06:35;28.40;52.10
24560;DHT22;12727;49.934;8.656;2022-07-23T15:09:02;28.70;51.80
24560;DHT22;12727;49.934;8.656;2022-07-23T15:11:28;28.50;51.40
24560;DHT22;12727;49.934;8.656;2022-07-23T15:13:57;28.40;51.80
24560;DHT22;12727;49.934;8.656;2022-07-23T15:16:23;28.20;51.60
24560;DHT22;12727;49.934;8.656;2022-07-23T15:18:48;28.20;52.00
24560;DHT22;12727;49.934;8.656;2022-07-23T15:21:14;28.40;51.70
24560;DHT22;12727;49.934;8.656;2022-07-23T15:23:39;28.60;51.10
24560;DHT22;12727;49.934;8.656;2022-07-23T15:26:06;28.80;50.30
24560;DHT22;12727;49.934;8.656;2022-07-23T15:28:33;28.70;50.20
24560;DHT22;12727;49.934;8.656;2022-07-23T15:30:59;28.60;50.40
24560;DHT22;12727;49.934;8.656;2022-07-23T15:33:24;28.60;50.60
24560;DHT22;12727;49.934;8.656;2022-07-23T15:35:50;28.60;50.60
24560;DHT22;12727;49.934;8.656;2022-07-23T15:38:18;28.60;50.90
24560;DHT22;12727;49.934;8.656;2022-07-23T15:40:43;28.90;50.10
24560;DHT22;12727;49.934;8.656;2022-07-23T15:43:09;28.90;50.30
24560;DHT22;12727;49.934;8.656;2022-07-23T15:45:35;28.70;50.20
24560;DHT22;12727;49.934;8.656;2022-07-23T15:48:01;28.50;50.40
24560;DHT22;12727;49.934;8.656;2022-07-23T15:50:27;28.50;50.70
24560;DHT22;12727;49.934;8.656;2022-07-23T15:52:53;28.60;49.90
24560;DHT22;12727;49.934;8.656;2022-07-23T15:55:18;28.60;49.80
24560;DHT22;12727;49.934;8.656;2022-07-23T15:57:44;28.60;50.80
24560;DHT22;12727;49.934;8.656;2022-07-23T16:00:11;28.60;49.90
24560;DHT22;12727;49.934;8.656;2022-07-23T16:02:37;28.70;49.80
24560;DHT22;12727;49.934;8.656;2022-07-23T16:05:03;28.90;49.50
24560;DHT22;12727;49.934;8.656;2022-07-23T16:07:28;28.70;49.30
24560;DHT22;12727;49.934;8.656;2022-07-23T16:09:54;28.50;49.30
24560;DHT22;12727;49.934;8.656;2022-07-23T16:12:19;28.40;49.50
24560;DHT22;12727;49.934;8.656;2022-07-23T16:14:45;28.40;49.90
24560;DHT22;12727;49.934;8.656;2022-07-23T16:17:10;28.60;49.80